Time;durP1;ratioP1;P1;durP2;ratioP2;P2;SDS_P1;SDS_P2;PMS_P1;PMS_P2;Temp;Humidity;BMP_temperature;BMP_pressure;BME280_temperature;BME280_humidity;BME280_pressure;Samples;Min_cycle;Max_cycle;Signal;HPM_P1;HPM_P2
2022/02/14 00:00:26;;;;;;;46.22;27.15;;;;;;;6.25;100.00;99336.03;5110945;28;20496;-93
2022/02/14 00:02:52;;;;;;;38.92;24.95;;;;;;;6.26;100.00;99335.13;5115974;28;20036;-93
2022/02/14 00:05:19;;;;;;;44.13;26.15;;;;;;;6.24;100.00;99323.69;5110066;28;20085;-95
2022/02/14 00:07:45;;;;;;;42.00;24.45;;;;;;;6.23;100.00;99314.00;5113418;28;20773;-94
2022/02/14 00:10:11;;;;;;;36.85;24.10;;;;;;;6.14;100.00;99300.81;5114409;28;20046;-94
2022/02/14 00:12:41;;;;;;;38.60;23.48;;;;;;;6.19;100.00;99308.75;5114662;28;20131;-94
2022/02/14 00:15:08;;;;;;;40.03;24.15;;;;;;;6.15;100.00;99311.38;5115798;28;20089;-93
2022/02/14 00:17:34;;;;;;;40.28;24.40;;;;;;;6.15;100.00;99303.44;5115496;28;20044;-94
2022/02/14 00:20:00;;;;;;;41.42;24.13;;;;;;;6.20;100.00;99308.72;5115890;28;20412;-94
2022/02/14 00:22:28;;;;;;;40.25;25.20;;;;;;;6.14;100.00;99295.53;5115809;28;20035;-94
2022/02/14 00:24:53;;;;;;;39.47;25.10;;;;;;;6.03;100.00;99292.00;5104408;28;20119;-94
2022/02/14 00:27:20;;;;;;;42.00;24.38;;;;;;;6.04;100.00;99288.50;5103210;28;20070;-94
2022/02/14 00:30:08;;;;;;;35.40;22.85;;;;;;;6.15;100.00;99311.38;5099038;28;20075;-94
2022/02/14 00:32:54;;;;;;;34.17;21.90;;;;;;;6.15;100.00;99311.38;5102312;28;20117;-95
2022/02/14 00:35:41;;;;;;;36.55;23.10;;;;;;;6.11;100.00;99299.03;5101945;28;20032;-93
2022/02/14 00:38:28;;;;;;;39.25;25.23;;;;;;;6.15;100.00;99302.56;5100944;28;20440;-94
2022/02/14 00:41:14;;;;;;;41.88;24.83;;;;;;;6.13;100.00;99299.94;5100342;28;20039;-94
2022/02/14 00:44:01;;;;;;;42.42;25.65;;;;;;;6.20;100.00;99311.34;5104462;28;20040;-93
2022/02/14 00:46:47;;;;;;;38.35;25.85;;;;;;;6.14;100.00;99299.06;5099047;28;20044;-94
2022/02/14 00:49:33;;;;;;;43.90;26.05;;;;;;;6.16;100.00;99297.31;5101497;28;20082;-95
2022/02/14 00:52:20;;;;;;;42.28;26.13;;;;;;;6.10;100.00;99292.03;5096276;28;20043;-93
2022/02/14 00:55:10;;;;;;;43.88;25.48;;;;;;;6.09;100.00;99276.16;5102209;28;20052;-94
2022/02/14 00:57:56;;;;;;;41.08;24.67;;;;;;;6.09;100.00;99277.03;5103629;28;20122;-93
2022/02/14 01:00:42;;;;;;;42.83;24.30;;;;;;;6.06;100.00;99277.06;5099945;28;20048;-92
2022/02/14 01:03:29;;;;;;;37.55;24.02;;;;;;;6.19;100.00;99290.25;5096498;28;20043;-94
2022/02/14 01:06:15;;;;;;;39.40;24.55;;;;;;;6.14;100.00;99279.72;5106011;28;20036;-93
2022/02/14 01:09:02;;;;;;;41.13;24.55;;;;;;;6.11;100.00;99270.00;5104742;28;20100;-93
2022/02/14 01:11:50;;;;;;;39.47;23.13;;;;;;;6.23;100.00;99284.09;5105767;28;20469;-92
2022/02/14 01:14:36;;;;;;;39.17;24.27;;;;;;;6.25;100.00;99277.94;5107241;28;20054;-94
2022/02/14 01:17:23;;;;;;;45.05;26.60;;;;;;;6.16;100.00;99259.47;5106328;28;20071;-93
2022/02/14 01:20:11;;;;;;;40.80;24.58;;;;;;;6.20;100.00;99271.75;5106233;28;20122;-92
2022/02/14 01:22:58;;;;;;;49.13;26.58;;;;;;;6.20;100.00;99271.75;5107475;28;20037;-93
2022/02/14 01:25:44;;;;;;;39.63;23.70;;;;;;;6.20;100.00;99263.81;5104974;28;20042;-93
2022/02/14 01:28:32;;;;;;;40.08;24.23;;;;;;;6.20;100.00;99258.53;5095846;28;20181;-93
2022/02/14 01:31:18;;;;;;;39.30;24.63;;;;;;;6.09;100.00;99242.72;5106558;28;20055;-93
2022/02/14 01:34:04;;;;;;;41.63;24.17;;;;;;;6.19;100.00;99248.88;5106517;28;20051;-92
2022/02/14 01:36:50;;;;;;;40.67;23.90;;;;;;;6.27;100.00;99273.53;5106207;28;20112;-92
2022/02/14 01:39:37;;;;;;;43.35;25.73;;;;;;;6.11;100.00;99250.66;5106517;28;20048;-93
2022/02/14 01:42:23;;;;;;;46.85;25.33;;;;;;;6.14;100.00;99259.44;5098532;28;20052;-93
2022/02/14 01:45:12;;;;;;;42.63;25.05;;;;;;;6.19;100.00;99256.81;5107551;28;20059;-94
2022/02/14 01:47:59;;;;;;;45.42;25.80;;;;;;;6.14;100.00;99248.03;5105879;28;20079;-94
2022/02/14 01:50:46;;;;;;;42.53;25.55;;;;;;;6.02;100.00;99229.53;5107136;28;20048;-93
2022/02/14 01:53:33;;;;;;;50.35;27.00;;;;;;;6.08;100.00;99243.63;5107451;28;20728;-94
2022/02/14 01:56:19;;;;;;;42.83;26.15;;;;;;;6.06;100.00;99237.44;5107058;28;20036;-93
2022/02/14 01:59:06;;;;;;;46.72;25.70;;;;;;;6.07;100.00;99235.69;5106677;28;20055;-93
2022/02/14 02:01:53;;;;;;;42.80;25.98;;;;;;;6.07;100.00;99217.19;5106171;28;20048;-93
2022/02/14 02:04:42;;;;;;;51.58;26.60;;;;;;;6.10;100.00;99215.44;5106471;28;20036;-94
2022/02/14 02:07:28;;;;;;;45.10;25.50;;;;;;;6.22;100.00;99243.56;5107767;28;20048;-94
2022/02/14 02:10:16;;;;;;;45.72;26.05;;;;;;;6.13;100.00;99225.13;5108332;28;20040;-93
2022/02/14 02:13:02;;;;;;;42.20;24.67;;;;;;;6.14;100.00;99224.25;5105341;28;20051;-93
2022/02/14 02:15:49;;;;;;;40.28;24.10;;;;;;;6.08;100.00;99211.94;5106793;28;20048;-92
2022/02/14 02:18:37;;;;;;;40.28;24.27;;;;;;;6.16;100.00;99226.00;5106323;28;20088;-94
2022/02/14 02:21:23;;;;;;;43.75;25.30;;;;;;;6.10;100.00;99204.88;5105044;28;20055;-93
2022/02/14 02:24:14;;;;;;;42.95;24.27;;;;;;;6.11;100.00;99211.91;5106372;28;20138;-93
2022/02/14 02:27:05;;;;;;;44.75;24.58;;;;;;;6.16;100.00;99212.81;5106524;28;20048;-94
2022/02/14 02:29:52;;;;;;;41.03;23.42;;;;;;;6.08;100.00;99205.78;5107494;28;20070;-93
2022/02/14 02:32:38;;;;;;;42.58;24.50;;;;;;;6.08;100.00;99206.66;5124460;28;20093;-94
2022/02/14 02:35:25;;;;;;;44.13;25.85;;;;;;;6.14;100.00;99205.78;5105530;28;20460;-93
2022/02/14 02:38:11;;;;;;;42.45;24.60;;;;;;;6.14;100.00;99190.81;5107426;28;20039;-93
2022/02/14 02:40:57;;;;;;;38.53;22.73;;;;;;;6.18;100.00;99196.97;5106086;28;20094;-93
2022/02/14 02:43:45;;;;;;;43.10;23.58;;;;;;;6.16;100.00;99199.59;5106797;28;20050;-92
2022/02/14 02:46:31;;;;;;;42.50;24.02;;;;;;;6.22;100.00;99200.44;5106132;28;20489;-93
2022/02/14 02:49:20;;;;;;;40.30;22.77;;;;;;;6.15;100.00;99187.25;5106169;28;20040;-94
2022/02/14 02:52:08;;;;;;;39.03;23.07;;;;;;;6.27;100.00;99210.13;5106167;28;20036;-93
2022/02/14 02:54:56;;;;;;;36.63;21.50;;;;;;;6.23;100.00;99200.47;5105594;28;20105;-93
2022/02/14 02:57:45;;;;;;;37.42;22.42;;;;;;;6.15;100.00;99200.47;5105696;28;20053;-94
2022/02/14 03:00:32;;;;;;;38.55;21.58;;;;;;;6.16;100.00;99201.38;5105076;28;20133;-94
2022/02/14 03:03:19;;;;;;;36.92;22.17;;;;;;;6.13;100.00;99182.88;5106681;28;20136;-93
2022/02/14 03:06:05;;;;;;;39.08;21.60;;;;;;;6.10;100.00;99177.63;5105268;28;20425;-94
2022/02/14 03:08:51;;;;;;;39.47;21.95;;;;;;;6.08;100.00;99179.38;5104694;28;20078;-94
2022/02/14 03:11:39;;;;;;;42.10;23.73;;;;;;;6.03;100.00;99175.84;5104276;28;20056;-94
2022/02/14 03:14:25;;;;;;;41.42;22.73;;;;;;;6.02;100.00;99174.09;5105680;28;20099;-94
2022/02/14 03:17:13;;;;;;;39.88;22.08;;;;;;;6.10;100.00;99177.63;5105623;28;20043;-93
2022/02/14 03:19:59;;;;;;;43.95;23.45;;;;;;;6.04;100.00;99164.41;5104171;28;20040;-94
2022/02/14 03:22:46;;;;;;;41.22;23.65;;;;;;;6.12;100.00;99175.84;5105151;28;20493;-94
2022/02/14 03:25:32;;;;;;;36.40;22.00;;;;;;;6.03;100.00;99155.63;5105122;28;20050;-94
2022/02/14 03:28:18;;;;;;;40.97;23.67;;;;;;;6.11;100.00;99166.16;5098124;28;20076;-94
2022/02/14 03:31:04;;;;;;;45.35;22.63;;;;;;;6.02;100.00;99158.25;5104668;28;20050;-93
2022/02/14 03:33:53;;;;;;;40.08;24.33;;;;;;;6.05;100.00;99182.91;5105140;28;20090;-94
2022/02/14 03:36:39;;;;;;;38.63;21.70;;;;;;;5.91;100.00;99156.50;5104945;28;20052;-94
2022/02/14 03:39:26;;;;;;;43.15;23.40;;;;;;;5.95;100.00;99158.28;5093135;28;20129;-93
2022/02/14 03:42:12;;;;;;;38.30;22.48;;;;;;;5.93;100.00;99154.72;5105894;28;20099;-94
2022/02/14 03:44:58;;;;;;;41.72;22.85;;;;;;;5.95;100.00;99171.47;5105987;28;20040;-94
2022/02/14 03:47:45;;;;;;;37.20;22.13;;;;;;;6.07;100.00;99193.44;5106760;28;20044;-94
2022/02/14 03:50:33;;;;;;;43.03;23.38;;;;;;;6.08;100.00;99184.66;5106547;28;20048;-94
2022/02/14 03:53:19;;;;;;;39.25;22.13;;;;;;;5.90;100.00;99152.09;5104484;28;20127;-93
2022/02/14 03:56:06;;;;;;;40.28;23.10;;;;;;;6.05;100.00;99167.06;5106597;28;20044;-94
2022/02/14 03:58:52;;;;;;;39.42;23.05;;;;;;;6.00;100.00;99154.75;5113372;28;20063;-94
2022/02/14 04:01:38;;;;;;;43.47;24.08;;;;;;;6.03;100.00;99165.28;5110096;28;20069;-93
2022/02/14 04:04:24;;;;;;;42.35;23.73;;;;;;;6.01;100.00;99159.13;5110234;28;20052;-95
2022/02/14 04:07:12;;;;;;;44.17;24.35;;;;;;;6.02;100.00;99150.34;5109098;28;20040;-94
2022/02/14 04:09:59;;;;;;;42.50;24.08;;;;;;;6.03;100.00;99160.00;5108045;28;20070;-94
2022/02/14 04:12:45;;;;;;;44.10;25.27;;;;;;;6.06;100.00;99155.59;5109872;28;20072;-94
2022/02/14 04:15:31;;;;;;;41.40;23.23;;;;;;;6.13;100.00;99172.31;5108475;28;20127;-93
2022/02/14 04:18:18;;;;;;;42.80;23.60;;;;;;;6.05;100.00;99152.97;5108729;28;20043;-94
2022/02/14 04:21:04;;;;;;;43.97;22.70;;;;;;;6.17;100.00;99169.66;5109911;28;20075;-93
2022/02/14 04:23:52;;;;;;;39.05;22.88;;;;;;;5.95;100.00;99144.22;5109959;28;20177;-93
2022/02/14 04:26:38;;;;;;;36.65;20.98;;;;;;;5.97;100.00;99159.16;5109841;28;20044;-93
2022/02/14 04:29:24;;;;;;;38.63;21.85;;;;;;;5.85;100.00;99161.78;5107574;28;20040;-94
2022/02/14 04:32:11;;;;;;;37.47;22.48;;;;;;;5.75;100.00;99171.47;5109082;28;20039;-94
2022/02/14 04:34:57;;;;;;;40.72;22.83;;;;;;;5.67;100.00;99161.81;5109150;28;20048;-94
2022/02/14 04:37:43;;;;;;;39.35;21.73;;;;;;;5.60;100.00;99154.78;5108886;28;20250;-93
2022/02/14 04:40:35;;;;;;;36.67;21.35;;;;;;;5.60;100.00;99162.72;5107979;28;20051;-93
2022/02/14 04:43:22;;;;;;;36.25;20.20;;;;;;;5.68;100.00;99169.75;5107424;28;20040;-93
2022/02/14 04:46:08;;;;;;;39.80;20.27;;;;;;;5.63;100.00;99149.50;5108897;28;20040;-94
2022/02/14 04:48:54;;;;;;;40.28;22.52;;;;;;;5.88;100.00;99188.19;5108829;28;20055;-93
2022/02/14 04:51:44;;;;;;;38.35;20.02;;;;;;;5.79;100.00;99159.16;5108061;28;20067;-95
2022/02/14 04:54:30;;;;;;;35.80;20.25;;;;;;;5.92;100.00;99182.03;5088266;28;20057;-93
2022/02/14 04:57:18;;;;;;;37.15;18.77;;;;;;;5.80;100.00;99152.13;5087105;28;20052;-93
2022/02/14 05:00:06;;;;;;;39.28;20.23;;;;;;;5.89;100.00;99162.66;5088278;28;20062;-94
2022/02/14 05:02:53;;;;;;;40.00;19.88;;;;;;;5.92;100.00;99144.16;5088144;28;20104;-93
2022/02/14 05:05:39;;;;;;;36.35;20.35;;;;;;;5.94;100.00;99153.91;5108109;28;20043;-93
2022/02/14 05:08:25;;;;;;;39.45;20.90;;;;;;;6.01;100.00;99156.50;5107578;28;20051;-93
2022/02/14 05:11:11;;;;;;;38.47;20.13;;;;;;;6.01;100.00;99160.03;5107187;28;20066;-94
2022/02/14 05:13:59;;;;;;;37.15;20.40;;;;;;;6.09;100.00;99165.28;5087688;28;20032;-93
2022/02/14 05:16:46;;;;;;;35.78;19.35;;;;;;;6.05;100.00;99150.31;5088041;28;20040;-94
2022/02/14 05:19:32;;;;;;;34.90;19.77;;;;;;;6.06;100.00;99155.59;5087069;28;20051;-94
2022/02/14 05:22:18;;;;;;;32.83;19.15;;;;;;;6.10;100.00;99164.41;5110567;28;20035;-94
2022/02/14 05:25:05;;;;;;;30.98;18.85;;;;;;;6.07;100.00;99152.09;5087858;28;20104;-95
2022/02/14 05:27:51;;;;;;;33.60;18.52;;;;;;;6.29;100.00;99178.41;5088090;28;20095;-93
2022/02/14 05:30:39;;;;;;;35.38;18.63;;;;;;;6.21;100.00;99157.31;5086837;28;20040;-94
2022/02/14 05:33:25;;;;;;;30.02;17.35;;;;;;;6.24;100.00;99164.34;5102327;28;20047;-95
2022/02/14 05:36:12;;;;;;;31.77;18.63;;;;;;;6.16;100.00;99149.44;5107893;28;20324;-94
2022/02/14 05:38:58;;;;;;;31.27;17.73;;;;;;;6.24;100.00;99174.91;5107481;28;20040;-95
2022/02/14 05:41:44;;;;;;;36.75;18.52;;;;;;;6.23;100.00;99155.56;5107048;28;20068;-94
2022/02/14 05:44:31;;;;;;;35.45;18.75;;;;;;;6.25;100.00;99161.72;5108434;28;20047;-93
2022/02/14 05:47:19;;;;;;;34.10;18.67;;;;;;;6.21;100.00;99149.41;5107759;28;20122;-94
2022/02/14 05:50:07;;;;;;;36.97;18.60;;;;;;;6.29;100.00;99157.28;5087493;28;20048;-94
2022/02/14 05:52:53;;;;;;;32.60;18.77;;;;;;;6.33;100.00;99159.94;5088355;28;20045;-94
2022/02/14 05:55:40;;;;;;;32.10;17.60;;;;;;;6.29;100.00;99152.00;5093239;28;20465;-94
2022/02/14 05:58:26;;;;;;;36.67;18.63;;;;;;;6.36;100.00;99154.63;5108101;28;20067;-93
2022/02/14 06:01:12;;;;;;;33.20;18.80;;;;;;;6.45;100.00;99173.97;5106796;28;20047;-94
2022/02/14 06:04:00;;;;;;;34.70;17.98;;;;;;;6.36;100.00;99159.91;5105490;28;20040;-93
2022/02/14 06:06:46;;;;;;;34.20;18.67;;;;;;;6.35;100.00;99158.16;5111542;28;20052;-92
2022/02/14 06:09:33;;;;;;;31.65;17.58;;;;;;;6.41;100.00;99169.59;5106432;28;20043;-93
2022/02/14 06:12:19;;;;;;;32.88;17.27;;;;;;;6.46;100.00;99170.44;5105214;28;20077;-93
2022/02/14 06:15:06;;;;;;;31.25;18.27;;;;;;;6.44;100.00;99159.91;5104880;28;20040;-94
2022/02/14 06:17:52;;;;;;;30.55;17.33;;;;;;;6.53;100.00;99173.06;5107453;28;20044;-94
2022/02/14 06:20:41;;;;;;;34.42;18.88;;;;;;;6.56;100.00;99166.88;5106417;28;20063;-95
2022/02/14 06:23:27;;;;;;;32.23;17.20;;;;;;;6.57;100.00;99158.94;5107427;28;20036;-94
2022/02/14 06:26:14;;;;;;;28.27;15.68;;;;;;;6.56;100.00;99161.59;5106769;28;20040;-94
2022/02/14 06:29:00;;;;;;;32.55;16.92;;;;;;;6.58;100.00;99158.06;5105650;28;20048;-95
2022/02/14 06:31:47;;;;;;;32.67;16.45;;;;;;;6.58;100.00;99157.19;5106328;28;20046;-95
2022/02/14 06:34:33;;;;;;;35.75;18.35;;;;;;;6.62;100.00;99158.06;5106596;28;20044;-96
2022/02/14 06:37:24;;;;;;;30.58;16.80;;;;;;;6.65;100.00;99163.31;5108456;28;20044;-96
2022/02/14 06:40:12;;;;;;;31.67;17.75;;;;;;;6.65;100.00;99160.66;5109130;28;20405;-94
2022/02/14 06:42:38;;;;;;;35.28;17.95;;;;;;;6.65;100.00;99155.38;5111310;28;20043;-95
2022/02/14 06:45:05;;;;;;;30.35;16.70;;;;;;;6.71;100.00;99158.00;5110796;28;20056;-95
2022/02/14 06:47:32;;;;;;;34.65;19.17;;;;;;;6.88;100.00;99193.16;5109852;28;20044;-95
2022/02/14 06:49:59;;;;;;;29.40;17.08;;;;;;;6.71;100.00;99166.81;5110378;28;20067;-95
2022/02/14 06:52:28;;;;;;;34.28;18.15;;;;;;;6.78;100.00;99167.63;5111322;28;20063;-96
2022/02/14 06:54:54;;;;;;;33.83;19.45;;;;;;;6.76;100.00;99170.28;5109289;28;20044;-96
2022/02/14 06:57:21;;;;;;;36.90;21.48;;;;;;;6.71;100.00;99153.59;5108860;28;20052;-96
2022/02/14 06:59:47;;;;;;;36.00;20.25;;;;;;;6.72;100.00;99159.75;5108866;28;20043;-96
2022/02/14 07:02:13;;;;;;;33.97;19.48;;;;;;;6.69;100.00;99163.28;5108676;28;20044;-95
2022/02/14 07:04:39;;;;;;;36.38;20.15;;;;;;;6.70;100.00;99154.50;5108925;28;20056;-95
2022/02/14 07:07:06;;;;;;;37.55;20.52;;;;;;;6.68;100.00;99164.19;5109109;28;20044;-95
2022/02/14 07:09:34;;;;;;;36.60;20.52;;;;;;;6.75;100.00;99163.25;5108755;28;20054;-95
2022/02/14 07:12:00;;;;;;;40.03;21.60;;;;;;;6.73;100.00;99150.94;5108111;28;20048;-95
2022/02/14 07:14:26;;;;;;;36.85;20.20;;;;;;;6.83;100.00;99157.03;5107625;28;20082;-95
2022/02/14 07:16:52;;;;;;;32.83;17.83;;;;;;;6.86;100.00;99157.03;5107183;28;20375;-95
2022/02/14 07:19:19;;;;;;;30.73;16.80;;;;;;;6.90;100.00;99159.66;5107648;28;20055;-94
2022/02/14 07:21:45;;;;;;;33.45;17.83;;;;;;;6.99;100.00;99164.00;5108098;28;20040;-95
2022/02/14 07:24:13;;;;;;;33.67;17.75;;;;;;;6.96;100.00;99161.34;5108527;28;20048;-96
2022/02/14 07:26:41;;;;;;;28.35;16.00;;;;;;;6.97;100.00;99160.50;5107961;28;20412;-95
2022/02/14 07:29:07;;;;;;;26.15;16.35;;;;;;;7.07;100.00;99153.38;5108756;28;20408;-95
2022/02/14 07:31:35;;;;;;;28.63;16.17;;;;;;;7.25;100.00;99157.66;5108094;28;20044;-95
2022/02/14 07:34:01;;;;;;;32.53;16.38;;;;;;;7.49;100.00;99177.75;5109413;28;20475;-95
2022/02/14 07:36:28;;;;;;;29.70;17.05;;;;;;;7.51;100.00;99157.47;5112676;28;20126;-96
2022/02/14 07:38:54;;;;;;;30.10;17.13;;;;;;;7.53;100.00;99158.31;5111738;28;20047;-95
2022/02/14 07:41:23;;;;;;;29.98;17.05;;;;;;;7.58;100.00;99154.72;5112712;28;20040;-96
2022/02/14 07:43:51;;;;;;;26.13;16.92;;;;;;;7.75;100.00;99174.88;5112953;28;20393;-95
2022/02/14 07:46:18;;;;;;;29.77;16.90;;;;;;;7.64;100.00;99156.44;5111992;28;20054;-96
2022/02/14 07:48:46;;;;;;;27.13;16.33;;;;;;;7.68;100.00;99162.59;5111990;28;20055;-94
2022/02/14 07:51:13;;;;;;;41.13;23.92;;;;;;;7.66;100.00;99157.31;5111397;28;20051;-95
2022/02/14 07:53:39;;;;;;;33.63;19.35;;;;;;;7.74;100.00;99159.88;5111312;28;20087;-94
2022/02/14 07:56:06;;;;;;;30.70;18.00;;;;;;;7.77;100.00;99157.22;5111163;28;20040;-96
2022/02/14 07:58:33;;;;;;;28.17;16.42;;;;;;;7.78;100.00;99149.25;5111500;28;20055;-94
2022/02/14 08:01:00;;;;;;;26.35;16.67;;;;;;;7.90;100.00;99147.38;5111501;28;20051;-95
2022/02/14 08:03:26;;;;;;;29.83;18.60;;;;;;;8.03;100.00;99160.47;5111855;28;20044;-95
2022/02/14 08:05:53;;;;;;;39.50;23.63;;;;;;;8.01;100.00;99150.78;5111408;28;20044;-96
2022/02/14 08:08:19;;;;;;;43.63;23.38;;;;;;;8.04;100.00;99148.09;5112133;28;20048;-95
2022/02/14 08:10:46;;;;;;;34.75;21.75;;;;;;;8.16;100.00;99176.25;5112636;28;20282;-95
2022/02/14 08:13:12;;;;;;;35.80;20.88;;;;;;;8.02;100.00;99156.09;5111633;28;20051;-96
2022/02/14 08:15:38;;;;;;;26.63;16.17;;;;;;;7.97;100.00;99149.94;5111590;28;20040;-96
2022/02/14 08:18:09;;;;;;;26.30;16.13;;;;;;;7.97;99.76;99179.06;5111725;28;20044;-95
2022/02/14 08:20:36;;;;;;;27.25;16.00;;;;;;;7.70;100.00;99139.63;5111037;28;20048;-95
2022/02/14 08:23:03;;;;;;;29.15;16.25;;;;;;;7.68;100.00;99146.72;5110109;28;20047;-96
2022/02/14 08:25:29;;;;;;;30.40;18.08;;;;;;;7.76;100.00;99168.69;5110110;28;20048;-96
2022/02/14 08:27:56;;;;;;;35.90;21.02;;;;;;;7.69;100.00;99145.81;5106763;28;20058;-96
2022/02/14 08:30:25;;;;;;;30.88;18.58;;;;;;;7.80;100.00;99175.72;5104963;28;20051;-96
2022/02/14 08:32:51;;;;;;;30.75;17.38;;;;;;;7.56;100.00;99145.91;5103948;28;20044;-96
2022/02/14 08:35:19;;;;;;;30.90;16.35;;;;;;;7.73;100.00;99171.38;5106221;28;20058;-95
2022/02/14 08:37:45;;;;;;;24.80;16.00;;;;;;;7.61;100.00;99160.00;5106259;28;20052;-95
2022/02/14 08:40:14;;;;;;;30.55;17.52;;;;;;;7.56;100.00;99166.22;5103484;28;20122;-93
2022/02/14 08:42:39;;;;;;;35.22;17.75;;;;;;;7.54;100.00;99171.53;5100646;28;20039;-93
2022/02/14 08:45:06;;;;;;;26.42;15.88;;;;;;;7.56;100.00;99172.38;5100746;28;20032;-93
2022/02/14 08:47:32;;;;;;;28.27;16.17;;;;;;;7.44;100.00;99159.28;5101028;28;20055;-92
2022/02/14 08:49:59;;;;;;;31.38;16.45;;;;;;;7.38;100.00;99152.25;5101364;28;20048;-94
2022/02/14 08:52:27;;;;;;;28.27;16.15;;;;;;;7.32;100.00;99148.78;5101526;28;20036;-92
2022/02/14 08:54:53;;;;;;;24.58;15.20;;;;;;;7.27;100.00;99156.75;5099730;28;20090;-92
2022/02/14 08:57:19;;;;;;;27.77;15.23;;;;;;;7.32;100.00;99168.16;5100096;28;20040;-92
2022/02/14 08:59:45;;;;;;;27.15;14.85;;;;;;;7.32;100.00;99165.53;5100445;28;20085;-92
2022/02/14 09:02:11;;;;;;;30.45;16.55;;;;;;;7.21;100.00;99140.94;5100594;28;20044;-90
2022/02/14 09:04:37;;;;;;;31.08;15.95;;;;;;;7.27;100.00;99150.59;5100465;28;20044;-92
2022/02/14 09:07:03;;;;;;;28.92;15.05;;;;;;;7.38;100.00;99160.19;5100012;28;20505;-94
2022/02/14 09:09:31;;;;;;;28.30;16.23;;;;;;;7.39;100.00;99147.84;5096364;28;20493;-93
2022/02/14 09:11:57;;;;;;;28.63;16.00;;;;;;;7.42;100.00;99163.69;5098780;28;20080;-93
2022/02/14 09:14:23;;;;;;;30.63;16.42;;;;;;;7.36;100.00;99163.75;5098160;28;20048;-93
2022/02/14 09:16:51;;;;;;;33.70;16.77;;;;;;;7.35;100.00;99164.63;5097222;28;20048;-93
2022/02/14 09:19:17;;;;;;;28.83;16.27;;;;;;;7.23;100.00;99148.88;5096202;28;20489;-93
2022/02/14 09:21:43;;;;;;;29.23;17.17;;;;;;;7.20;100.00;99149.78;5096144;28;20044;-92
2022/02/14 09:24:12;;;;;;;29.90;17.00;;;;;;;7.16;100.00;99138.31;5096317;28;20032;-93
2022/02/14 09:26:41;;;;;;;31.23;16.92;;;;;;;7.19;100.00;99134.78;5096197;28;20054;-93
2022/02/14 09:29:08;;;;;;;32.05;17.73;;;;;;;7.36;100.00;99140.81;5096831;28;20458;-91
2022/02/14 09:31:34;;;;;;;29.17;16.63;;;;;;;7.60;100.00;99152.94;5099429;28;20044;-93
2022/02/14 09:34:00;;;;;;;30.75;16.80;;;;;;;7.50;100.00;99134.50;5097231;28;20576;-91
2022/02/14 09:36:27;;;;;;;28.23;15.90;;;;;;;7.68;100.00;99138.78;5097283;28;20076;-93
2022/02/14 09:38:53;;;;;;;28.35;15.82;;;;;;;7.94;100.00;99146.47;5097426;28;20048;-93
2022/02/14 09:41:21;;;;;;;29.75;16.75;;;;;;;8.11;100.00;99157.75;5096303;28;20488;-93
2022/02/14 09:43:49;;;;;;;31.48;17.05;;;;;;;8.18;100.00;99142.66;5095509;28;20040;-93
2022/02/14 09:46:15;;;;;;;29.05;15.40;;;;;;;8.28;100.00;99152.25;5095957;28;20080;-93
2022/02/14 09:48:42;;;;;;;25.88;15.90;;;;;;;8.19;100.00;99162.94;5096361;28;20141;-93
2022/02/14 09:51:10;;;;;;;27.05;16.20;;;;;;;8.13;100.00;99149.78;5095969;28;20366;-94
2022/02/14 09:53:36;;;;;;;30.85;17.05;;;;;;;7.98;100.00;99133.19;5095967;28;20036;-94
2022/02/14 09:56:02;;;;;;;29.38;18.27;;;;;;;7.91;100.00;99139.41;5094535;28;20071;-94
2022/02/14 09:58:28;;;;;;;30.30;18.00;;;;;;;7.93;100.00;99164.09;5096457;28;20048;-93
2022/02/14 10:00:55;;;;;;;28.98;17.25;;;;;;;7.87;100.00;99150.94;5094112;28;20047;-92
2022/02/14 10:03:23;;;;;;;29.35;17.60;;;;;;;7.94;100.00;99160.56;5095305;28;20481;-93
2022/02/14 10:05:50;;;;;;;31.55;18.33;;;;;;;7.87;100.00;99147.41;5094656;28;20036;-92
2022/02/14 10:08:19;;;;;;;38.70;21.58;;;;;;;7.81;100.00;99145.72;5093649;28;20044;-94
2022/02/14 10:10:45;;;;;;;39.30;22.60;;;;;;;7.77;100.00;99144.84;5094644;28;20067;-94
2022/02/14 10:13:26;;;;;;;36.33;22.27;;;;;;;7.80;100.00;99149.22;5093719;28;20040;-93
2022/02/14 10:15:51;;;;;;;37.00;20.40;;;;;;;7.80;100.00;99144.81;5089231;28;20041;-94
2022/02/14 10:18:31;;;;;;;40.92;22.05;;;;;;;7.78;100.00;99149.25;5094302;28;20040;-94
2022/02/14 10:21:16;;;;;;;;;;;;;;;7.88;100.00;99162.41;5094522;28;20511;-93
2022/02/14 10:24:13;;;;;;;39.00;22.55;;;;;;;7.84;100.00;99161.56;5094447;28;19920;-92
2022/02/14 10:26:40;;;;;;;40.60;22.63;;;;;;;7.76;100.00;99140.47;5026434;28;20041;-93
2022/02/14 10:29:12;;;;;;;40.85;22.98;;;;;;;7.82;100.00;99124.50;5032725;28;20045;-93
2022/02/14 10:31:43;;;;;;;43.38;22.85;;;;;;;7.98;100.00;99140.22;5020892;28;20087;-95
2022/02/14 10:34:11;;;;;;;43.22;23.60;;;;;;;7.99;100.00;99124.31;5027460;28;20065;-93
2022/02/14 10:36:38;;;;;;;54.72;30.60;;;;;;;8.09;100.00;99117.16;5030566;28;20092;-92
2022/02/14 10:39:09;;;;;;;42.80;24.45;;;;;;;8.28;100.00;99136.34;5032762;28;20550;-93
2022/02/14 10:41:35;;;;;;;36.78;23.17;;;;;;;8.41;100.00;99116.81;5032304;28;20040;-94
2022/02/14 10:44:06;;;;;;;54.90;30.25;;;;;;;8.45;100.00;99128.22;5033572;28;20037;-93
2022/02/14 10:46:33;;;;;;;41.28;23.80;;;;;;;8.42;100.00;99120.34;5032674;28;20045;-93
2022/02/14 10:49:00;;;;;;;52.28;29.70;;;;;;;8.49;100.00;99126.44;5033224;28;20049;-94
2022/02/14 10:51:28;;;;;;;65.60;36.60;;;;;;;8.41;100.00;99119.47;5033444;28;20132;-95
2022/02/14 10:53:55;;;;;;;48.58;27.30;;;;;;;8.51;100.00;99135.25;5034630;28;20045;-94
2022/02/14 10:56:22;;;;;;;36.63;22.25;;;;;;;8.48;100.00;99122.00;5033022;28;20061;-94
2022/02/14 10:58:49;;;;;;;37.22;22.02;;;;;;;8.43;100.00;99104.38;5033560;28;20041;-94
2022/02/14 11:01:16;;;;;;;35.63;21.85;;;;;;;8.43;100.00;99095.56;5078344;28;20066;-93
2022/02/14 11:03:44;;;;;;;34.92;21.67;;;;;;;8.50;100.00;99096.34;5095320;28;20505;-94
2022/02/14 11:06:11;;;;;;;35.15;21.48;;;;;;;8.54;100.00;99077.75;5095236;28;20408;-94
2022/02/14 11:08:39;;;;;;;33.95;21.35;;;;;;;8.73;100.00;99104.00;5095374;28;20043;-94
2022/02/14 11:11:08;;;;;;;37.05;21.23;;;;;;;8.62;100.00;99090.91;5094358;28;20080;-94
2022/02/14 11:13:35;;;;;;;34.22;20.63;;;;;;;8.64;100.00;99083.81;5095918;28;20362;-95
2022/02/14 11:16:02;;;;;;;32.05;19.67;;;;;;;8.79;100.00;99082.72;5095866;28;20040;-94
2022/02/14 11:18:31;;;;;;;33.60;20.02;;;;;;;8.78;100.00;99060.63;5097195;28;20043;-94
2022/02/14 11:21:00;;;;;;;41.22;23.10;;;;;;;9.20;100.00;99090.03;5097660;28;20087;-94
2022/02/14 11:23:28;;;;;;;39.83;23.37;;;;;;;9.24;100.00;99051.91;5097513;28;20075;-94
2022/02/14 11:26:01;;;;;;;37.00;21.98;;;;;;;9.35;100.00;99048.22;5096578;28;20040;-95
2022/02/14 11:28:34;;;;;;;34.58;21.85;;;;;;;9.43;100.00;99046.28;5097945;28;20054;-94
2022/02/14 11:31:09;;;;;;;44.22;22.77;;;;;;;9.54;100.00;99051.38;5097756;28;20079;-94
2022/02/14 11:33:35;;;;;;;37.65;22.95;;;;;;;9.64;100.00;99048.53;5099090;28;20048;-94
2022/02/14 11:36:05;;;;;;;33.83;21.73;;;;;;;9.71;99.45;99048.41;5099085;28;20566;-94
2022/02/14 11:38:45;;;;;;;33.80;21.88;;;;;;;9.80;99.90;99034.97;5098476;28;20401;-94
2022/02/14 11:41:34;;;;;;;43.00;22.98;;;;;;;9.90;99.74;99039.19;5098638;28;20040;-95
2022/02/14 11:44:25;;;;;;;40.10;23.65;;;;;;;9.96;100.00;99032.88;5099384;28;20044;-94
2022/02/14 11:47:10;;;;;;;42.90;24.80;;;;;;;10.13;99.67;99025.44;5089681;28;20120;-95
2022/02/14 11:49:43;;;;;;;38.30;25.95;;;;;;;10.05;97.43;98996.38;5099736;28;20041;-95
2022/02/14 11:52:29;;;;;;;40.45;23.02;;;;;;;9.98;98.56;98994.75;5100647;28;20181;-95
2022/02/14 11:54:56;;;;;;;29.45;18.52;;;;;;;10.13;97.66;99013.91;5100855;28;20047;-94
2022/02/14 11:57:29;;;;;;;32.67;19.73;;;;;;;10.02;98.89;99011.50;5100958;28;20040;-95
2022/02/14 12:00:24;;;;;;;33.88;21.83;;;;;;;10.05;99.42;99020.28;5100913;28;20048;-95
2022/02/14 12:03:00;;;;;;;33.15;19.92;;;;;;;10.00;100.00;99003.56;5101224;28;20032;-94